Accueil
METAR-TAF:

METAR-TAF

Aéroports :

Aéroport international de Pékin-Capitale

Pékin, Chine

latitude: 39-56N, longitude: 116-17E, altitude: 55 m

Observation

Le bulletin a été fait il y a 18 minutes, à 00:00 UTC
Vent 2 kt de direction variable
Température 8°C
Humidité 71%
Pression 1017 hPa
Visibilité 10 km ou plus
pas de nuages en-dessous de 1500 mètres et pas de cumulonimbus.

METAR: ZBAA 120000Z VRB01MPS CAVOK 08/03 Q1017 NOSIG

Heure: 08:18 (00:18 UTC)

Prévision

Le bulletin a été fait il y a 2 heures et 58 minutes, à 21:20 UTC
Prévision valable du 12 à 00 UTC au 12 à 24 UTC
Vent 8 kt de nord-ouest
Visibilité 10 km ou plus
pas de nuages en-dessous de 1500 mètres et pas de cumulonimbus.
Evoluant progressivement
du 12 à 21 UTC au 12 à 22 UTC
Vent 19 kt de nord-ouest avec des rafales jusqu'à 31 kt

TAF: ZBAA 112120Z 1200/1224 32004MPS CAVOK TX18/1207Z TN04/1221Z BECMG 1221/1222 32010G16MPS

Observations et prévisions météorologiques de plus de 4000 aéroports (messages METAR et TAF).

Les stations disponibles sont représentées par des disques jaunes et rouges sur la carte.

Passer la souris dessus pour voir le nom de la station.

Cliquer dessus pour voir les observations et prévisions météorologiques.

Pour changer de carte: cliquez sur les boutons verts avec une croix noire pour zoomer, sur le bouton vert avec un tiret pour effectuer un zoom arrière, ou sur les flèches vertes pour les cartes adjacentes.


METAR-TAF: